KBTL/BTL METAR and TAF weather

Enter ICAO airport designator
Station Type Date Time Source
KBTL METAR 2018/04/21 20:53 UTC NOAA

KBTL 212053Z 19004KT 10SM SCT120 14/M03 A3039 RMK AO2 SLP295 T013910


Station Type Date Time Source
KBTL Decoded METAR 2018/04/21 20:53 UTC NOAA

W.K.KELLOGG REGIONAL AIRPORT, MI, United States (KBTL) 42-18N 085-15W 290M
Apr 21, 2018 - 04:53 PM EDT / 2018.04.21 2053 UTC
Wind: from the S (190 degrees) at 5 MPH (4 KT):0
Visibility: 10 mile(s):0
Sky conditions: partly cloudy
Temperature: 57.0 F (13.9 C)
Dew Point: 27.0 F (-2.8 C)
Relative Humidity: 31%
Pressure (altimeter): 30.39 in. Hg (1029 hPa)
Pressure tendency: 0.04 inches (1.4 hPa) lower than three hours ago
ob: KBTL 212053Z 19004KT 10SM SCT120 14/M03 A3039 RMK AO2 SLP295 T01391028 56014
cycle: 21

Station Type Date Time Source
KBTL TAF 2018/04/21 18:54 UTC NOAA

TAF KBTL 211751Z 2118/2218 20007KT P6SM SCT150 OVC250
FM212100 26004KT P6SM OVC110
FM220400 00000KT P6SM SCT130


Example: see airport list